PWSweather.com
Personal Weather Stations
Station Observations
KIDJEROME
Sse Jerome Butte , Jerome, ID 83338

Sse Jerome Butte Jerome, ID 83338

Lat: 42.6981891, Lon: -114.4041362

Elevation: 3960

Station Type: Davis Vantage Pro 2

Latest ConditionsUpdated 6:30:00 AM MDT Wednesday, May 23, 2018
Currently Today's Max Today's Min Today's Average
Temperature 49.7°F9.8°C 54.4°F12.4°C 49.1°F9.5°C 50.7°F10.4°C
Dew Point 48.0°F8.9°C 50.9°F10.5°C 46.6°F8.1°C 48.5°F9.2°C
Winds 3.0 mph NE4.8 kmh NE 4.0 mph NE6.4 kmh NE - 2.2 mph 3.5 kmh
Wind Gusts 5.0 mph8.0 kmh 7.0 mph11.3 kmh - -
Humidity 94% 94% 87% 92%
Pressure 29.70 in1005.8 mb 29.70 in1005.8 mb 29.69 in1005.4 mb -
Hour Temp Dew Point Humidity Winds Wind Gusts Pressure Precip Precip Rate Daily Precip Total
06:30 AM 49.7°F9.8°C 48.0°F8.9°C 94% 3.0 mph NE4.8 kmh NE 5.0 mph8.0 kmh 29.70 in1005.8 mb 0.00 in0.0 mm 0.00 in0.0 mm 0.00 in0.0 mm
06:15 AM 49.5°F9.7°C 47.6°F8.7°C 93% 3.0 mph NE4.8 kmh NE 4.0 mph6.4 kmh 29.70 in1005.8 mb 0.00 in0.0 mm 0.00 in0.0 mm 0.00 in0.0 mm
06:00 AM 49.7°F9.8°C 47.8°F8.8°C 93% 3.0 mph NE4.8 kmh NE 6.0 mph9.7 kmh 29.70 in1005.8 mb 0.00 in0.0 mm 0.00 in0.0 mm 0.00 in0.0 mm
05:45 AM 50.1°F10.1°C 47.6°F8.7°C 91% 2.0 mph NE3.2 kmh NE 6.0 mph9.7 kmh 29.70 in1005.8 mb 0.00 in0.0 mm 0.00 in0.0 mm 0.00 in0.0 mm
05:30 AM 50.5°F10.3°C 48.6°F9.2°C 93% 2.0 mph NE3.2 kmh NE 5.0 mph8.0 kmh 29.70 in1005.8 mb 0.00 in0.0 mm 0.00 in0.0 mm 0.00 in0.0 mm
05:15 AM 49.9°F9.9°C 48.2°F9.0°C 94% 4.0 mph NNE6.4 kmh NNE 5.0 mph8.0 kmh 29.70 in1005.8 mb 0.00 in0.0 mm 0.00 in0.0 mm 0.00 in0.0 mm
05:00 AM 49.2°F9.6°C 47.5°F8.6°C 94% 1.0 mph NE1.6 kmh NE 7.0 mph11.3 kmh 29.70 in1005.8 mb 0.00 in0.0 mm 0.00 in0.0 mm 0.00 in0.0 mm
04:45 AM 49.1°F9.5°C 46.6°F8.1°C 91% Calm Calm 1.0 mph1.6 kmh 29.70 in1005.8 mb 0.00 in0.0 mm 0.00 in0.0 mm 0.00 in0.0 mm
04:30 AM 49.5°F9.7°C 47.3°F8.5°C 92% 2.0 mph NE3.2 kmh NE 3.0 mph4.8 kmh 29.69 in1005.4 mb 0.00 in0.0 mm 0.00 in0.0 mm 0.00 in0.0 mm
04:15 AM 49.7°F9.8°C 48.0°F8.9°C 94% 3.0 mph NE4.8 kmh NE 5.0 mph8.0 kmh 29.69 in1005.4 mb 0.00 in0.0 mm 0.00 in0.0 mm 0.00 in0.0 mm
04:00 AM 49.4°F9.7°C 47.7°F8.7°C 94% 4.0 mph NE6.4 kmh NE 5.0 mph8.0 kmh 29.69 in1005.4 mb 0.00 in0.0 mm 0.00 in0.0 mm 0.00 in0.0 mm
03:45 AM 49.4°F9.7°C 47.7°F8.7°C 94% 4.0 mph NE6.4 kmh NE 5.0 mph8.0 kmh 29.69 in1005.4 mb 0.00 in0.0 mm 0.00 in0.0 mm 0.00 in0.0 mm
03:30 AM 49.7°F9.8°C 48.0°F8.9°C 94% 3.0 mph NE4.8 kmh NE 4.0 mph6.4 kmh 29.69 in1005.4 mb 0.00 in0.0 mm 0.00 in0.0 mm 0.00 in0.0 mm
03:15 AM 50.0°F10.0°C 48.3°F9.1°C 94% 3.0 mph ENE4.8 kmh ENE 5.0 mph8.0 kmh 29.69 in1005.4 mb 0.00 in0.0 mm 0.00 in0.0 mm 0.00 in0.0 mm
03:00 AM 50.0°F10.0°C 48.3°F9.1°C 94% 4.0 mph NE6.4 kmh NE 7.0 mph11.3 kmh 29.69 in1005.4 mb 0.00 in0.0 mm 0.00 in0.0 mm 0.00 in0.0 mm
02:45 AM 50.1°F10.1°C 48.2°F9.0°C 93% 3.0 mph E4.8 kmh E 5.0 mph8.0 kmh 29.70 in1005.8 mb 0.00 in0.0 mm 0.00 in0.0 mm 0.00 in0.0 mm
02:30 AM 50.7°F10.4°C 48.5°F9.2°C 92% 3.0 mph NE4.8 kmh NE 5.0 mph8.0 kmh 29.70 in1005.8 mb 0.00 in0.0 mm 0.00 in0.0 mm 0.00 in0.0 mm
02:15 AM 51.0°F10.6°C 48.5°F9.2°C 91% 1.0 mph NE1.6 kmh NE 4.0 mph6.4 kmh 29.69 in1005.4 mb 0.00 in0.0 mm 0.00 in0.0 mm 0.00 in0.0 mm
02:00 AM 51.2°F10.7°C 48.7°F9.3°C 91% 1.0 mph 1.6 kmh -- 29.70 in1005.8 mb 0.00 in0.0 mm 0.00 in0.0 mm 0.00 in0.0 mm
01:45 AM 51.5°F10.8°C 49.3°F9.6°C 92% 2.0 mph ENE3.2 kmh ENE 4.0 mph6.4 kmh 29.70 in1005.8 mb 0.00 in0.0 mm 0.00 in0.0 mm 0.00 in0.0 mm
01:30 AM 51.5°F10.8°C 49.3°F9.6°C 92% 2.0 mph ENE3.2 kmh ENE 4.0 mph6.4 kmh 29.70 in1005.8 mb 0.00 in0.0 mm 0.00 in0.0 mm 0.00 in0.0 mm
01:15 AM 51.7°F10.9°C 49.7°F9.8°C 93% 3.0 mph NE4.8 kmh NE 4.0 mph6.4 kmh 29.70 in1005.8 mb 0.00 in0.0 mm 0.00 in0.0 mm 0.00 in0.0 mm
01:00 AM 51.2°F10.7°C 49.0°F9.4°C 92% 3.0 mph ENE4.8 kmh ENE 5.0 mph8.0 kmh 29.70 in1005.8 mb 0.00 in0.0 mm 0.00 in0.0 mm 0.00 in0.0 mm
12:45 AM 53.4°F11.9°C 49.6°F9.8°C 87% Calm Calm 4.0 mph6.4 kmh 29.70 in1005.8 mb 0.00 in0.0 mm 0.00 in0.0 mm 0.00 in0.0 mm
12:30 AM 54.4°F12.4°C 50.9°F10.5°C 88% Calm Calm -- 29.70 in1005.8 mb 0.00 in0.0 mm 0.00 in0.0 mm 0.00 in0.0 mm
12:15 AM 54.1°F12.3°C 50.9°F10.5°C 89% Calm Calm -- 29.69 in1005.4 mb 0.00 in0.0 mm 0.00 in0.0 mm 0.00 in0.0 mm
12:00 AM 54.0°F12.2°C 50.8°F10.4°C 89% Calm Calm -- 29.69 in1005.4 mb 0.00 in0.0 mm 0.00 in0.0 mm 0.00 in0.0 mm